Time;durP1;ratioP1;P1;durP2;ratioP2;P2;SDS_P1;SDS_P2;PMS_P1;PMS_P2;Temp;Humidity;BMP_temperature;BMP_pressure;BME280_temperature;BME280_humidity;BME280_pressure;Samples;Min_cycle;Max_cycle;Signal;HPM_P1;HPM_P2
2024/01/01 00:01:40;;;;;;;9.43;4.10;;;-5.60;99.90;;;;;;4969784;28;20212;-82
2024/01/01 00:04:09;;;;;;;8.80;4.50;;;-5.50;99.90;;;;;;4955465;28;20564;-81
2024/01/01 00:06:36;;;;;;;9.30;5.13;;;-5.60;99.90;;;;;;4972890;28;20192;-82
2024/01/01 00:09:04;;;;;;;10.88;5.35;;;-5.50;99.90;;;;;;4972873;28;20219;-82
2024/01/01 00:11:31;;;;;;;7.97;4.10;;;-5.40;99.90;;;;;;4972985;28;20282;-82
2024/01/01 00:13:59;;;;;;;10.07;4.13;;;-5.40;99.90;;;;;;4972922;28;20465;-82
2024/01/01 00:16:26;;;;;;;8.35;4.13;;;-5.50;99.90;;;;;;4972533;28;20184;-80
2024/01/01 00:18:54;;;;;;;8.43;3.72;;;-5.50;99.90;;;;;;4955572;28;20678;-82
2024/01/01 00:21:21;;;;;;;11.23;4.25;;;-5.50;99.90;;;;;;4955323;28;20208;-83
2024/01/01 00:23:49;;;;;;;5.18;3.25;;;-5.50;99.90;;;;;;4955048;28;20200;-81
2024/01/01 00:26:16;;;;;;;7.68;3.55;;;-5.50;99.90;;;;;;4955231;28;20192;-81
2024/01/01 00:28:45;;;;;;;7.20;3.92;;;-5.60;99.90;;;;;;4955567;28;20199;-80
2024/01/01 00:31:13;;;;;;;8.43;3.97;;;-5.70;99.90;;;;;;4954897;28;20227;-82
2024/01/01 00:33:40;;;;;;;8.25;3.85;;;-5.60;99.90;;;;;;4972439;28;20184;-82
2024/01/01 00:36:08;;;;;;;10.23;3.88;;;-5.50;99.90;;;;;;4972207;28;20313;-81
2024/01/01 00:38:36;;;;;;;9.30;4.38;;;-5.70;99.90;;;;;;4972300;28;20191;-81
2024/01/01 00:41:03;;;;;;;5.45;2.95;;;-5.60;99.90;;;;;;4972227;28;20184;-81
2024/01/01 00:43:32;;;;;;;7.57;3.75;;;-5.80;99.90;;;;;;4972083;28;20195;-81
2024/01/01 00:45:59;;;;;;;8.70;3.90;;;-5.70;99.90;;;;;;4972512;28;20197;-82
2024/01/01 00:48:27;;;;;;;9.65;4.20;;;-5.70;99.90;;;;;;4972131;28;20183;-82
2024/01/01 00:50:55;;;;;;;8.57;3.80;;;-5.60;99.90;;;;;;4971892;28;20235;-82
2024/01/01 00:53:22;;;;;;;8.27;3.63;;;-5.70;99.90;;;;;;4971986;28;20184;-82
2024/01/01 00:55:50;;;;;;;7.15;3.58;;;-5.70;99.90;;;;;;4954298;28;20286;-81
2024/01/01 00:58:17;;;;;;;7.27;3.60;;;-5.60;99.90;;;;;;4972003;28;20180;-80
2024/01/01 01:00:45;;;;;;;10.27;3.75;;;-5.60;99.90;;;;;;4972036;28;20196;-82
2024/01/01 01:03:12;;;;;;;7.28;3.88;;;-5.60;99.90;;;;;;4954593;28;20229;-82
2024/01/01 01:05:40;;;;;;;10.40;4.40;;;-5.50;99.90;;;;;;4954212;28;20196;-81
2024/01/01 01:08:07;;;;;;;10.53;3.80;;;-5.70;99.90;;;;;;4954550;28;20192;-81
2024/01/01 01:10:35;;;;;;;8.68;3.45;;;-5.70;99.90;;;;;;4971677;28;20192;-80
2024/01/01 01:13:04;;;;;;;6.55;3.63;;;-5.70;99.90;;;;;;4971191;28;20279;-81
2024/01/01 01:15:34;;;;;;;10.18;3.70;;;-5.60;99.90;;;;;;4971507;28;20216;-81
2024/01/01 01:18:01;;;;;;;7.68;3.55;;;-5.60;99.90;;;;;;4971660;28;20192;-83
2024/01/01 01:20:29;;;;;;;6.25;3.38;;;-5.70;99.90;;;;;;4971538;28;20188;-80
2024/01/01 01:22:56;;;;;;;5.63;2.75;;;-5.80;99.90;;;;;;4954258;28;20212;-82
2024/01/01 01:25:24;;;;;;;9.70;4.18;;;-5.80;99.90;;;;;;4938608;28;20188;-82
2024/01/01 01:27:51;;;;;;;6.45;3.13;;;-5.80;99.90;;;;;;4954089;28;20207;-81
2024/01/01 01:30:19;;;;;;;8.75;4.38;;;-5.80;99.90;;;;;;4971436;28;20237;-81
2024/01/01 01:32:46;;;;;;;5.93;3.22;;;-5.80;99.90;;;;;;4971307;28;20200;-82
2024/01/01 01:35:14;;;;;;;5.38;3.05;;;-5.70;99.90;;;;;;4953695;28;20203;-82
2024/01/01 01:37:44;;;;;;;9.55;3.72;;;-5.80;99.90;;;;;;4953896;28;20269;-82
2024/01/01 01:40:12;;;;;;;8.13;3.83;;;-5.80;99.90;;;;;;4970923;28;20190;-81
2024/01/01 01:42:43;;;;;;;8.57;3.78;;;-5.80;99.90;;;;;;4937658;28;20216;-82
2024/01/01 01:45:11;;;;;;;8.60;4.53;;;-5.80;99.90;;;;;;4971391;28;20263;-82
2024/01/01 01:47:39;;;;;;;8.53;3.33;;;-5.80;99.90;;;;;;4938052;28;20192;-82
2024/01/01 01:50:08;;;;;;;7.18;3.13;;;-5.80;99.90;;;;;;4970897;28;20240;-81
2024/01/01 01:52:37;;;;;;;9.32;4.32;;;-5.70;99.90;;;;;;4953427;28;20188;-81
2024/01/01 01:55:06;;;;;;;7.43;3.97;;;-5.70;99.90;;;;;;4970834;28;20215;-81
2024/01/01 01:57:34;;;;;;;9.57;4.53;;;-5.70;99.90;;;;;;4970858;28;20253;-82
2024/01/01 02:00:04;;;;;;;9.25;4.60;;;-5.70;99.90;;;;;;4937532;28;20191;-82
2024/01/01 02:02:37;;;;;;;8.18;4.43;;;-5.60;99.90;;;;;;4954589;28;20309;-82
2024/01/01 02:05:05;;;;;;;7.53;3.95;;;-5.60;99.90;;;;;;4953514;28;20188;-82
2024/01/01 02:07:33;;;;;;;10.73;4.78;;;-5.60;99.90;;;;;;4953719;28;20184;-81
2024/01/01 02:10:00;;;;;;;9.02;3.92;;;-5.70;99.90;;;;;;4953312;28;20729;-80
2024/01/01 02:12:28;;;;;;;8.73;3.92;;;-5.80;99.90;;;;;;4953309;28;20243;-82
2024/01/01 02:14:56;;;;;;;8.07;4.38;;;-5.90;99.90;;;;;;4953125;28;20207;-81
2024/01/01 02:17:23;;;;;;;9.85;3.97;;;-5.70;99.90;;;;;;4970414;28;20717;-81
2024/01/01 02:19:51;;;;;;;7.85;4.03;;;-5.70;99.90;;;;;;4970376;28;20188;-81
2024/01/01 02:22:22;;;;;;;10.23;4.20;;;-5.70;99.90;;;;;;4952907;28;20208;-81
2024/01/01 02:24:49;;;;;;;11.15;4.35;;;-5.80;99.90;;;;;;4952500;28;20283;-82
2024/01/01 02:27:17;;;;;;;7.63;3.85;;;-5.70;99.90;;;;;;4953473;28;20184;-82
2024/01/01 02:29:44;;;;;;;7.40;2.92;;;-5.60;99.90;;;;;;4953472;28;20191;-81
2024/01/01 02:32:12;;;;;;;10.65;5.18;;;-5.70;99.90;;;;;;4937259;28;20601;-82
2024/01/01 02:34:39;;;;;;;9.82;4.25;;;-5.80;99.90;;;;;;4969151;28;20712;-82
2024/01/01 02:37:07;;;;;;;8.15;3.45;;;-6.00;99.90;;;;;;4952650;28;20295;-82
2024/01/01 02:39:34;;;;;;;6.90;3.55;;;-5.90;99.90;;;;;;4970246;28;20272;-82
2024/01/01 02:42:02;;;;;;;8.00;3.83;;;-5.90;99.90;;;;;;4952451;28;20216;-81
2024/01/01 02:44:29;;;;;;;8.90;4.13;;;-5.80;99.90;;;;;;4952976;28;20188;-81
2024/01/01 02:46:56;;;;;;;8.32;4.32;;;-5.80;99.90;;;;;;4970106;28;20283;-83
2024/01/01 02:49:24;;;;;;;8.67;4.97;;;-5.70;99.90;;;;;;4953124;28;20192;-81
2024/01/01 02:51:51;;;;;;;7.38;3.72;;;-5.70;99.90;;;;;;4952664;28;20192;-81
2024/01/01 02:54:20;;;;;;;7.15;3.72;;;-5.60;99.90;;;;;;4953161;28;20247;-82
2024/01/01 02:56:48;;;;;;;8.98;3.88;;;-5.70;99.90;;;;;;4970192;28;20230;-81
2024/01/01 02:59:15;;;;;;;12.80;4.75;;;-5.70;99.90;;;;;;4970943;28;20235;-82
2024/01/01 03:01:42;;;;;;;9.85;4.65;;;-5.70;99.90;;;;;;4936655;28;20747;-82
2024/01/01 03:04:10;;;;;;;6.13;3.20;;;-5.70;99.90;;;;;;4952413;28;20194;-82
2024/01/01 03:06:37;;;;;;;9.88;4.22;;;-5.80;99.90;;;;;;4952436;28;20599;-82
2024/01/01 03:09:05;;;;;;;8.07;4.05;;;-5.70;99.90;;;;;;4952410;28;20222;-81
2024/01/01 03:11:32;;;;;;;7.53;3.50;;;-5.80;99.90;;;;;;4936714;28;20196;-82
2024/01/01 03:14:00;;;;;;;8.52;4.22;;;-5.80;99.90;;;;;;4970067;28;20275;-82
2024/01/01 03:16:27;;;;;;;10.07;3.45;;;-5.70;99.90;;;;;;4952528;28;20219;-82
2024/01/01 03:18:55;;;;;;;9.57;4.10;;;-5.70;99.90;;;;;;4952693;28;20188;-81
2024/01/01 03:21:22;;;;;;;7.95;4.03;;;-5.80;99.90;;;;;;4952530;28;20195;-81
2024/01/01 03:23:49;;;;;;;10.32;5.20;;;-5.80;99.90;;;;;;4952051;28;20621;-81
2024/01/01 03:26:18;;;;;;;8.55;4.45;;;-5.80;99.90;;;;;;4936519;28;20295;-81
2024/01/01 03:28:46;;;;;;;8.38;3.88;;;-6.00;99.90;;;;;;4952303;28;20195;-81
2024/01/01 03:31:14;;;;;;;9.45;3.88;;;-6.00;99.90;;;;;;4952150;28;20678;-81
2024/01/01 03:33:41;;;;;;;6.80;3.30;;;-6.10;99.90;;;;;;4952738;28;20188;-81
2024/01/01 03:36:09;;;;;;;7.30;3.90;;;-6.20;99.90;;;;;;4953117;28;20199;-82
2024/01/01 03:38:36;;;;;;;8.05;3.85;;;-6.00;99.90;;;;;;4956682;28;20655;-82
2024/01/01 03:41:04;;;;;;;7.28;4.20;;;-5.80;99.90;;;;;;4955979;28;20184;-82
2024/01/01 03:43:32;;;;;;;9.20;4.03;;;-5.80;99.90;;;;;;4955720;28;20220;-82
2024/01/01 03:45:59;;;;;;;9.63;3.95;;;-5.90;99.90;;;;;;4955702;28;20203;-81
2024/01/01 03:48:27;;;;;;;6.70;3.15;;;-5.80;99.90;;;;;;4955724;28;20203;-81
2024/01/01 03:50:54;;;;;;;7.07;3.67;;;-5.80;99.90;;;;;;4955843;28;20196;-82
2024/01/01 03:53:22;;;;;;;7.90;3.78;;;-5.70;99.90;;;;;;4973434;28;20199;-82
2024/01/01 03:55:49;;;;;;;8.38;3.63;;;-5.70;99.90;;;;;;4939935;28;20246;-80
2024/01/01 03:58:18;;;;;;;12.20;4.10;;;-5.70;99.90;;;;;;4973686;28;20218;-81
2024/01/01 04:00:46;;;;;;;9.77;4.35;;;-5.60;99.90;;;;;;4973400;28;20658;-82
2024/01/01 04:03:13;;;;;;;10.45;4.30;;;-5.80;99.90;;;;;;4939657;28;20220;-80
2024/01/01 04:05:41;;;;;;;5.80;3.20;;;-5.90;99.90;;;;;;4955474;28;20196;-81
2024/01/01 04:08:08;;;;;;;7.03;3.22;;;-6.00;99.90;;;;;;4939530;28;20188;-82
2024/01/01 04:10:36;;;;;;;6.20;3.40;;;-6.10;99.90;;;;;;4972958;28;20199;-81
2024/01/01 04:13:04;;;;;;;6.80;3.27;;;-6.20;99.90;;;;;;4939402;28;20662;-82
2024/01/01 04:15:31;;;;;;;6.50;3.53;;;-6.10;99.90;;;;;;4939417;28;20597;-81
2024/01/01 04:17:59;;;;;;;7.32;3.47;;;-6.00;99.90;;;;;;4972550;28;20188;-81
2024/01/01 04:20:26;;;;;;;5.63;2.65;;;-6.00;99.90;;;;;;4972743;28;20239;-81
2024/01/01 04:22:54;;;;;;;5.03;2.78;;;-6.00;99.90;;;;;;4972655;28;20639;-81
2024/01/01 04:25:21;;;;;;;5.68;2.55;;;-6.00;99.90;;;;;;4955776;28;20191;-81
2024/01/01 04:27:49;;;;;;;6.57;3.33;;;-5.90;99.90;;;;;;4972787;28;20188;-82
2024/01/01 04:30:16;;;;;;;9.23;3.80;;;-5.90;99.90;;;;;;4972558;28;20263;-82
2024/01/01 04:32:43;;;;;;;8.00;4.10;;;-6.20;99.90;;;;;;4972472;28;20210;-81
2024/01/01 04:35:12;;;;;;;8.57;4.15;;;-6.10;99.90;;;;;;4972442;28;20195;-82
2024/01/01 04:37:39;;;;;;;11.13;3.63;;;-6.00;99.90;;;;;;4954847;28;20202;-81
2024/01/01 04:40:07;;;;;;;5.82;2.95;;;-6.20;99.90;;;;;;4972329;28;20254;-81
2024/01/01 04:42:35;;;;;;;6.18;3.42;;;-6.10;99.90;;;;;;4972058;28;20235;-80
2024/01/01 04:45:02;;;;;;;4.50;2.63;;;-6.10;99.90;;;;;;4954594;28;20372;-81
2024/01/01 04:47:30;;;;;;;5.82;3.30;;;-6.30;99.90;;;;;;4954243;28;20191;-80
2024/01/01 04:49:57;;;;;;;6.13;2.65;;;-6.20;99.90;;;;;;4971782;28;20196;-80
2024/01/01 04:52:24;;;;;;;4.75;3.15;;;-6.20;99.90;;;;;;4970978;28;20250;-82
2024/01/01 04:54:56;;;;;;;7.53;3.50;;;-6.20;99.90;;;;;;4954927;28;20192;-80
2024/01/01 04:57:23;;;;;;;6.97;3.53;;;-6.10;99.90;;;;;;4955155;28;20232;-81
2024/01/01 04:59:51;;;;;;;7.10;3.08;;;-6.00;99.90;;;;;;4938895;28;20232;-81
2024/01/01 05:02:19;;;;;;;7.80;3.60;;;-6.00;99.90;;;;;;4971897;28;20677;-81
2024/01/01 05:04:46;;;;;;;10.68;3.53;;;-6.10;99.90;;;;;;4971915;28;20190;-83
2024/01/01 05:07:13;;;;;;;8.32;3.22;;;-6.20;99.90;;;;;;4971921;28;20195;-78
2024/01/01 05:09:44;;;;;;;6.80;2.83;;;-6.20;99.90;;;;;;4971992;28;20184;-80
2024/01/01 05:12:15;;;;;;;8.25;3.08;;;-6.70;99.90;;;;;;4971640;28;20728;-80
2024/01/01 05:14:42;;;;;;;8.40;3.90;;;-6.70;99.90;;;;;;4971597;28;20188;-81
2024/01/01 05:17:10;;;;;;;6.40;2.90;;;-6.60;99.90;;;;;;4971882;28;20182;-82
2024/01/01 05:19:37;;;;;;;7.10;2.95;;;-6.60;99.90;;;;;;4954695;28;20276;-82
2024/01/01 05:22:05;;;;;;;7.85;3.83;;;-6.60;99.90;;;;;;4971720;28;20184;-82
2024/01/01 05:24:32;;;;;;;5.93;3.20;;;-6.50;99.90;;;;;;4971556;28;20200;-80
2024/01/01 05:27:00;;;;;;;4.75;2.45;;;-6.40;99.90;;;;;;4971498;28;20693;-80
2024/01/01 05:29:28;;;;;;;7.03;3.28;;;-6.70;99.90;;;;;;4971671;28;20238;-82
2024/01/01 05:31:55;;;;;;;9.52;4.13;;;-6.60;99.90;;;;;;4972098;28;20235;-81
2024/01/01 05:34:23;;;;;;;8.57;4.03;;;-6.60;99.90;;;;;;4971701;28;20685;-82
2024/01/01 05:36:51;;;;;;;8.05;3.72;;;-6.40;99.90;;;;;;4971357;28;20191;-82
2024/01/01 05:39:18;;;;;;;7.97;3.45;;;-6.40;99.90;;;;;;4971810;28;20489;-83
2024/01/01 05:41:46;;;;;;;6.85;3.28;;;-6.40;99.90;;;;;;4971855;28;20184;-81
2024/01/01 05:44:13;;;;;;;7.00;3.63;;;-6.30;99.90;;;;;;4970927;28;20200;-81
2024/01/01 05:46:41;;;;;;;9.18;3.88;;;-6.50;99.90;;;;;;4971476;28;20183;-82
2024/01/01 05:49:08;;;;;;;9.23;3.83;;;-6.40;99.90;;;;;;4971218;28;20327;-81
2024/01/01 05:51:36;;;;;;;7.28;3.10;;;-6.40;99.90;;;;;;4971146;28;20187;-82
2024/01/01 05:54:03;;;;;;;6.95;4.05;;;-6.40;99.90;;;;;;4971447;28;20912;-80
2024/01/01 05:56:31;;;;;;;7.47;3.58;;;-6.20;99.90;;;;;;4970673;28;20223;-80
2024/01/01 05:58:58;;;;;;;9.20;3.15;;;-6.30;99.90;;;;;;4970357;28;20275;-82
2024/01/01 06:01:26;;;;;;;9.80;4.05;;;-6.50;99.90;;;;;;4970102;28;20183;-82
2024/01/01 06:03:53;;;;;;;6.55;3.28;;;-6.40;99.90;;;;;;4970620;28;20204;-80
2024/01/01 06:06:24;;;;;;;6.97;3.92;;;-6.30;99.90;;;;;;4970717;28;20531;-82
2024/01/01 06:08:52;;;;;;;11.82;3.95;;;-6.40;99.90;;;;;;4970890;28;20168;-82
2024/01/01 06:11:19;;;;;;;9.40;3.92;;;-6.70;99.90;;;;;;4970900;28;20238;-81
2024/01/01 06:13:47;;;;;;;12.07;4.00;;;-6.50;99.90;;;;;;4970713;28;20586;-81
2024/01/01 06:16:15;;;;;;;9.77;4.57;;;-6.70;99.90;;;;;;4953806;28;20184;-83
2024/01/01 06:18:44;;;;;;;7.55;3.85;;;-6.50;99.90;;;;;;4971046;28;20207;-81
2024/01/01 06:21:11;;;;;;;8.63;3.92;;;-6.40;99.90;;;;;;4970703;28;20242;-81
2024/01/01 06:23:40;;;;;;;9.50;3.53;;;-6.40;99.90;;;;;;4952909;28;20587;-81
2024/01/01 06:26:09;;;;;;;8.15;3.85;;;-6.60;99.90;;;;;;4970492;28;20191;-82
2024/01/01 06:28:36;;;;;;;8.75;3.58;;;-6.40;99.90;;;;;;4970628;28;20180;-82
2024/01/01 06:31:04;;;;;;;7.68;4.00;;;-6.40;99.90;;;;;;4970755;28;20188;-82
2024/01/01 06:33:31;;;;;;;5.82;3.10;;;-6.60;99.90;;;;;;4970205;28;20219;-80
2024/01/01 06:36:00;;;;;;;8.57;4.30;;;-6.70;99.90;;;;;;4953017;28;20215;-80
2024/01/01 06:38:27;;;;;;;8.75;4.18;;;-6.60;99.90;;;;;;4970258;28;20215;-81
2024/01/01 06:40:54;;;;;;;8.80;3.58;;;-6.70;99.90;;;;;;4970356;28;20180;-81
2024/01/01 06:43:22;;;;;;;9.30;3.47;;;-6.60;99.90;;;;;;4970090;28;20203;-82
2024/01/01 06:45:49;;;;;;;7.15;3.58;;;-6.60;99.90;;;;;;4970132;28;20180;-81
2024/01/01 06:48:16;;;;;;;8.48;3.63;;;-6.80;99.90;;;;;;4970202;28;20243;-82
2024/01/01 06:50:44;;;;;;;8.00;3.72;;;-6.60;99.90;;;;;;4952338;28;20203;-81
2024/01/01 06:53:11;;;;;;;11.48;3.95;;;-6.40;99.90;;;;;;4970109;28;20198;-81
2024/01/01 06:55:39;;;;;;;10.77;4.05;;;-6.40;99.90;;;;;;4953031;28;20275;-82
2024/01/01 06:58:06;;;;;;;8.07;3.55;;;-6.50;99.90;;;;;;4952656;28;20246;-81
2024/01/01 07:00:34;;;;;;;6.97;3.13;;;-6.60;99.90;;;;;;4969970;28;20191;-81
2024/01/01 07:03:02;;;;;;;7.10;3.63;;;-6.60;99.90;;;;;;4969783;28;20195;-81
2024/01/01 07:05:30;;;;;;;8.40;3.53;;;-6.80;99.90;;;;;;4952356;28;20662;-82
2024/01/01 07:07:58;;;;;;;8.43;3.47;;;-7.30;99.90;;;;;;4952279;28;20266;-80
2024/01/01 07:10:25;;;;;;;6.30;2.90;;;-7.20;99.90;;;;;;4969801;28;20557;-81
2024/01/01 07:12:54;;;;;;;8.65;3.67;;;-7.10;99.90;;;;;;4973685;28;20188;-80
2024/01/01 07:15:22;;;;;;;7.00;2.80;;;-7.10;99.90;;;;;;4956998;28;20184;-81
2024/01/01 07:17:49;;;;;;;7.97;3.70;;;-7.40;99.90;;;;;;4956856;28;20235;-81
2024/01/01 07:20:17;;;;;;;6.37;3.37;;;-7.30;99.90;;;;;;4956174;28;20200;-82
2024/01/01 07:22:45;;;;;;;8.45;3.45;;;-7.20;99.90;;;;;;4973995;28;20187;-80
2024/01/01 07:25:12;;;;;;;6.32;3.22;;;-7.20;99.90;;;;;;4940258;28;20702;-80
2024/01/01 07:27:40;;;;;;;7.73;3.60;;;-7.30;99.90;;;;;;4973559;28;20184;-80
2024/01/01 07:30:07;;;;;;;8.52;3.10;;;-7.10;99.90;;;;;;4956373;28;20188;-82
2024/01/01 07:32:35;;;;;;;8.27;2.70;;;-6.90;99.90;;;;;;4940231;28;20199;-81
2024/01/01 07:35:03;;;;;;;5.82;3.33;;;-7.20;99.90;;;;;;4955942;28;20203;-82
2024/01/01 07:37:30;;;;;;;9.65;3.65;;;-7.00;99.90;;;;;;4956543;28;20188;-80
2024/01/01 07:39:57;;;;;;;8.38;2.83;;;-6.80;99.90;;;;;;4955943;28;20242;-81
2024/01/01 07:42:26;;;;;;;8.52;3.50;;;-6.90;99.90;;;;;;4956421;28;20263;-81
2024/01/01 07:44:53;;;;;;;7.55;3.05;;;-6.90;99.90;;;;;;4956214;28;20230;-80
2024/01/01 07:47:21;;;;;;;10.00;3.40;;;-7.00;99.90;;;;;;4955820;28;20199;-82
2024/01/01 07:49:49;;;;;;;9.20;3.60;;;-7.20;99.90;;;;;;4955730;28;20626;-80
2024/01/01 07:52:17;;;;;;;9.00;4.03;;;-6.90;99.90;;;;;;4955693;28;20302;-81
2024/01/01 07:54:44;;;;;;;8.63;3.60;;;-6.90;99.90;;;;;;4939934;28;20938;-80
2024/01/01 07:57:12;;;;;;;5.82;3.47;;;-6.90;99.90;;;;;;4955614;28;20235;-82
2024/01/01 07:59:39;;;;;;;6.60;3.58;;;-6.90;99.90;;;;;;4955724;28;20650;-80
2024/01/01 08:02:07;;;;;;;8.75;3.53;;;-6.70;99.90;;;;;;4955155;28;20651;-81
2024/01/01 08:04:34;;;;;;;6.53;2.78;;;-6.70;99.90;;;;;;4972989;28;20290;-80
2024/01/01 08:07:02;;;;;;;7.18;3.58;;;-6.80;99.90;;;;;;4973019;28;20235;-81
2024/01/01 08:09:30;;;;;;;12.55;3.33;;;-6.90;99.90;;;;;;4973220;28;20184;-81
2024/01/01 08:11:57;;;;;;;7.00;3.00;;;-6.80;99.90;;;;;;4972819;28;20191;-81
2024/01/01 08:14:25;;;;;;;10.43;3.75;;;-7.00;99.90;;;;;;4972875;28;20192;-81
2024/01/01 08:16:52;;;;;;;8.95;3.65;;;-7.10;99.90;;;;;;4972671;28;20188;-81
2024/01/01 08:19:20;;;;;;;8.77;4.07;;;-7.10;99.90;;;;;;4972917;28;20192;-81
2024/01/01 08:21:47;;;;;;;7.28;3.22;;;-7.00;99.90;;;;;;4973285;28;20196;-82
2024/01/01 08:24:14;;;;;;;8.52;3.70;;;-6.70;99.90;;;;;;4971243;28;20670;-82
2024/01/01 08:26:42;;;;;;;6.68;3.35;;;-6.80;99.90;;;;;;4972606;28;20188;-82
2024/01/01 08:29:10;;;;;;;8.02;3.38;;;-6.90;99.90;;;;;;4972513;28;20192;-81
2024/01/01 08:31:37;;;;;;;7.20;3.47;;;-6.80;99.90;;;;;;4972489;28;20243;-79
2024/01/01 08:34:04;;;;;;;9.15;3.53;;;-6.80;99.90;;;;;;4972510;28;20238;-81
2024/01/01 08:36:32;;;;;;;7.28;3.25;;;-6.60;99.90;;;;;;4973025;28;20650;-80
2024/01/01 08:38:59;;;;;;;8.52;3.88;;;-6.70;99.90;;;;;;4972414;28;20210;-81
2024/01/01 08:41:27;;;;;;;6.60;3.25;;;-6.70;99.90;;;;;;4972374;28;20254;-80
2024/01/01 08:43:57;;;;;;;10.45;3.53;;;-6.80;99.90;;;;;;4972364;28;20207;-81
2024/01/01 08:46:26;;;;;;;6.53;2.80;;;-6.80;99.90;;;;;;4972447;28;20259;-80
2024/01/01 08:48:54;;;;;;;5.60;2.45;;;-6.90;99.90;;;;;;4972184;28;20219;-81
2024/01/01 08:51:22;;;;;;;9.50;3.28;;;-7.00;99.90;;;;;;4972200;28;20718;-81
2024/01/01 08:53:49;;;;;;;6.97;3.30;;;-6.80;99.90;;;;;;4972302;28;20192;-79
2024/01/01 08:56:16;;;;;;;9.15;3.05;;;-6.80;99.90;;;;;;4971964;28;20327;-82
2024/01/01 08:58:44;;;;;;;6.82;3.30;;;-6.80;99.90;;;;;;4972089;28;20188;-82
2024/01/01 09:01:11;;;;;;;5.70;2.67;;;-6.80;99.90;;;;;;4954652;28;20191;-82
2024/01/01 09:03:39;;;;;;;10.18;3.65;;;-6.90;99.90;;;;;;4971807;28;20219;-81
2024/01/01 09:06:07;;;;;;;9.32;3.03;;;-6.90;99.90;;;;;;4972182;28;20188;-82
2024/01/01 09:08:34;;;;;;;7.10;3.15;;;-6.80;99.90;;;;;;4972017;28;20188;-81
2024/01/01 09:11:03;;;;;;;7.88;2.92;;;-6.80;99.90;;;;;;4971763;28;20190;-80
2024/01/01 09:13:30;;;;;;;6.40;3.20;;;-6.90;99.90;;;;;;4954498;28;20212;-82
2024/01/01 09:15:58;;;;;;;6.47;2.75;;;-6.90;99.90;;;;;;4971746;28;20180;-81
2024/01/01 09:18:25;;;;;;;7.63;3.15;;;-6.80;99.90;;;;;;4954565;28;20176;-80
2024/01/01 09:20:53;;;;;;;6.68;2.88;;;-6.90;99.90;;;;;;4954631;28;20192;-81
2024/01/01 09:23:26;;;;;;;10.70;3.70;;;-6.80;99.90;;;;;;4954900;28;20263;-81
2024/01/01 09:25:58;;;;;;;7.95;3.13;;;-6.80;99.90;;;;;;4971438;28;20643;-82
2024/01/01 09:28:26;;;;;;;7.32;3.47;;;-6.80;99.90;;;;;;4970418;28;20259;-81
2024/01/01 09:30:55;;;;;;;6.40;3.05;;;-7.00;99.90;;;;;;4954055;28;20192;-81
2024/01/01 09:33:23;;;;;;;8.27;3.50;;;-6.90;99.90;;;;;;4954172;28;20184;-80
2024/01/01 09:35:52;;;;;;;6.78;2.80;;;-7.00;99.90;;;;;;4970862;28;20555;-80
2024/01/01 09:38:20;;;;;;;9.02;3.38;;;-6.90;99.90;;;;;;4971208;28;20203;-81
2024/01/01 09:40:47;;;;;;;6.63;3.50;;;-6.90;99.90;;;;;;4971491;28;20180;-82
2024/01/01 09:43:17;;;;;;;8.77;3.17;;;-6.80;99.90;;;;;;4971417;28;20187;-80
2024/01/01 09:45:48;;;;;;;6.40;3.03;;;-6.90;99.90;;;;;;4970993;28;20211;-81
2024/01/01 09:48:15;;;;;;;8.18;3.22;;;-6.80;99.90;;;;;;4971083;28;20210;-81
2024/01/01 09:50:43;;;;;;;8.80;4.18;;;-6.80;99.90;;;;;;4971231;28;20188;-81
2024/01/01 09:53:11;;;;;;;6.25;3.08;;;-6.90;99.90;;;;;;4970747;28;20191;-80
2024/01/01 09:55:39;;;;;;;8.23;3.55;;;-6.80;99.90;;;;;;4953514;28;20184;-81
2024/01/01 09:58:06;;;;;;;6.72;3.13;;;-6.90;99.90;;;;;;4953659;28;20291;-81
2024/01/01 10:00:34;;;;;;;11.30;3.45;;;-6.90;99.90;;;;;;4971308;28;20195;-81
2024/01/01 10:03:11;;;;;;;6.60;2.13;;;-6.80;99.90;;;;;;4970765;28;20198;-82
2024/01/01 10:05:40;;;;;;;8.05;4.15;;;-7.00;99.90;;;;;;4970870;28;20265;-81
2024/01/01 10:08:09;;;;;;;9.05;3.47;;;-6.80;99.90;;;;;;4970575;28;20591;-82
2024/01/01 10:10:38;;;;;;;9.60;3.83;;;-6.80;99.90;;;;;;4970663;28;20191;-82
2024/01/01 10:13:12;;;;;;;9.57;4.65;;;-7.00;99.90;;;;;;4970416;28;20180;-81
2024/01/01 10:15:41;;;;;;;8.32;3.50;;;-7.00;99.90;;;;;;4970598;28;20800;-82
2024/01/01 10:18:11;;;;;;;7.32;3.08;;;-7.00;99.90;;;;;;4970503;28;20183;-82
2024/01/01 10:20:40;;;;;;;8.18;3.38;;;-7.10;99.90;;;;;;4970676;28;20180;-81
2024/01/01 10:23:19;;;;;;;8.43;4.23;;;-7.10;99.90;;;;;;4970564;28;20192;-82
2024/01/01 10:25:51;;;;;;;9.68;3.80;;;-7.00;99.90;;;;;;4970518;28;20227;-81
2024/01/01 10:28:24;;;;;;;6.85;3.25;;;-7.00;99.90;;;;;;4970624;28;20639;-82
2024/01/01 10:30:52;;;;;;;10.80;3.70;;;-7.00;99.90;;;;;;4970397;28;20196;-80
2024/01/01 10:33:21;;;;;;;7.75;3.60;;;-6.90;99.90;;;;;;4970494;28;20354;-81
2024/01/01 10:35:52;;;;;;;9.88;3.08;;;-6.90;99.90;;;;;;4970287;28;20199;-81
2024/01/01 10:38:20;;;;;;;7.35;3.22;;;-7.10;99.90;;;;;;4970405;28;20187;-81
2024/01/01 10:40:50;;;;;;;8.95;3.58;;;-7.00;99.90;;;;;;4952850;28;20200;-82
2024/01/01 10:43:20;;;;;;;6.90;3.50;;;-6.90;99.90;;;;;;4953080;28;20200;-81
2024/01/01 10:45:49;;;;;;;7.38;3.28;;;-7.10;99.90;;;;;;4952410;28;20226;-80
2024/01/01 10:48:17;;;;;;;7.28;4.10;;;-7.00;99.90;;;;;;4970223;28;20180;-81
2024/01/01 10:51:05;;;;;;;11.13;4.03;;;-7.20;99.90;;;;;;4970066;28;20283;-81
2024/01/01 10:53:45;;;;;;;7.80;3.88;;;-7.10;99.90;;;;;;4970339;28;20175;-81
2024/01/01 10:56:39;;;;;;;6.78;3.25;;;-7.00;99.90;;;;;;4970167;28;20718;-80
2024/01/01 10:59:15;;;;;;;5.72;2.97;;;-7.00;99.90;;;;;;4952871;28;20191;-80
2024/01/01 11:01:44;;;;;;;11.48;4.78;;;-6.90;99.90;;;;;;4970234;28;20215;-80
2024/01/01 11:04:12;;;;;;;9.98;4.03;;;-6.80;99.90;;;;;;4971427;28;20227;-83
2024/01/01 11:06:44;;;;;;;11.23;3.88;;;-6.80;99.90;;;;;;4970497;28;20188;-80
2024/01/01 11:09:21;;;;;;;8.10;3.92;;;-6.80;99.90;;;;;;4970018;28;20183;-82
2024/01/01 11:11:50;;;;;;;9.18;3.95;;;-6.80;99.90;;;;;;4969993;28;20184;-81
2024/01/01 11:14:25;;;;;;;12.45;4.35;;;-7.00;99.90;;;;;;4970018;28;20212;-80
2024/01/01 11:16:55;;;;;;;8.65;4.10;;;-6.90;99.90;;;;;;4970079;28;20175;-79
2024/01/01 11:19:39;;;;;;;7.55;3.38;;;-6.90;99.90;;;;;;4969875;28;20258;-83
2024/01/01 11:22:31;;;;;;;10.48;4.15;;;-7.00;99.90;;;;;;4969772;28;20168;-80
2024/01/01 11:25:00;;;;;;;10.75;3.92;;;-6.90;99.90;;;;;;4969879;28;20200;-80
2024/01/01 11:27:31;;;;;;;7.40;3.47;;;-7.00;99.90;;;;;;4969916;28;20713;-83
2024/01/01 11:30:01;;;;;;;13.38;3.92;;;-7.00;99.90;;;;;;4970065;28;20179;-80
2024/01/01 11:32:28;;;;;;;6.63;3.30;;;-7.00;99.90;;;;;;4969910;28;20652;-80
2024/01/01 11:35:15;;;;;;;9.32;3.65;;;-7.20;99.90;;;;;;4969768;28;20195;-80
2024/01/01 11:37:45;;;;;;;11.10;4.07;;;-7.10;99.90;;;;;;4952696;28;20220;-80
2024/01/01 11:40:13;;;;;;;9.38;4.07;;;-7.00;99.90;;;;;;4936653;28;20210;-79
2024/01/01 11:42:41;;;;;;;9.73;4.18;;;-6.90;99.90;;;;;;4952338;28;20812;-81
2024/01/01 11:45:12;;;;;;;8.70;2.55;;;-6.90;99.90;;;;;;4967770;28;20227;-79
2024/01/01 11:47:40;;;;;;;9.10;3.40;;;-7.10;99.90;;;;;;4936771;28;20188;-80
2024/01/01 11:50:08;;;;;;;8.23;3.67;;;-7.10;99.90;;;;;;4952063;28;20926;-80
2024/01/01 11:52:37;;;;;;;5.38;3.03;;;-7.10;99.90;;;;;;4969611;28;20192;-81
2024/01/01 11:55:05;;;;;;;9.63;4.40;;;-7.40;99.90;;;;;;4969511;28;20194;-80
2024/01/01 11:57:32;;;;;;;9.32;3.92;;;-7.20;99.90;;;;;;4950498;28;20228;-81
2024/01/01 12:00:00;;;;;;;6.78;3.45;;;-7.10;99.90;;;;;;4952426;29;20209;-81
2024/01/01 12:02:35;;;;;;;7.28;3.92;;;-7.00;99.90;;;;;;4953866;28;20212;-81
2024/01/01 12:05:04;;;;;;;7.45;3.33;;;-7.00;99.90;;;;;;4952075;28;20696;-80
2024/01/01 12:07:33;;;;;;;9.40;3.38;;;-6.90;99.90;;;;;;4953699;29;20189;-80
2024/01/01 12:10:08;;;;;;;8.65;3.10;;;-7.00;99.90;;;;;;4952266;29;20752;-82
2024/01/01 12:12:38;;;;;;;6.60;2.88;;;-7.10;99.90;;;;;;4953553;29;20168;-79
2024/01/01 12:15:21;;;;;;;8.13;3.38;;;-7.10;99.90;;;;;;4952172;28;20189;-83
2024/01/01 12:17:52;;;;;;;7.40;3.15;;;-7.00;99.90;;;;;;4953703;28;20640;-80
2024/01/01 12:20:25;;;;;;;10.23;4.07;;;-7.20;99.90;;;;;;4947409;28;20643;-83
2024/01/01 12:23:09;;;;;;;7.50;3.53;;;-7.20;99.90;;;;;;4954001;29;20183;-83
2024/01/01 12:25:36;;;;;;;11.68;4.03;;;-7.30;99.90;;;;;;4946102;28;20233;-83
2024/01/01 12:28:08;;;;;;;7.55;3.50;;;-7.10;99.90;;;;;;4952024;29;20191;-83
2024/01/01 12:30:37;;;;;;;6.97;2.72;;;-7.00;99.90;;;;;;4943432;29;20655;-84
2024/01/01 12:33:05;;;;;;;9.40;3.42;;;-7.00;99.90;;;;;;4949817;29;20195;-81
2024/01/01 12:35:37;;;;;;;70.22;27.40;;;-7.00;99.90;;;;;;4953194;29;20197;-83
2024/01/01 12:38:04;;;;;;;12.52;5.47;;;-6.80;99.90;;;;;;4952958;28;20193;-84
2024/01/01 12:40:32;;;;;;;13.20;5.38;;;-6.80;99.90;;;;;;4952916;29;20202;-83
2024/01/01 12:42:59;;;;;;;19.05;6.82;;;-7.00;99.90;;;;;;4955473;28;20721;-83
2024/01/01 12:45:27;;;;;;;11.35;4.78;;;-7.20;99.90;;;;;;4945930;28;20251;-83
2024/01/01 12:47:59;;;;;;;10.88;4.82;;;-7.00;99.90;;;;;;4952420;28;20678;-83
2024/01/01 12:50:28;;;;;;;95.72;39.55;;;-7.00;99.90;;;;;;4949845;29;20256;-82
2024/01/01 12:52:57;;;;;;;19.42;11.55;;;-7.10;99.90;;;;;;4943026;28;20252;-83